< < Back
Terminal Aerodrome Forecast


Current Version              Previous Versions:   1  2  3  4  5  6  7  8  9  

Terminal Aerodrome Forecast

845
FTUS44 KOHX 252300
TAFCSV
TAF
KCSV 252331Z 2600/2624 28004KT P6SM SKC
     FM260600 VRB02KT 6SM BR SKC
     FM260800 00000KT 4SM BR SCT007
      TEMPO 2609/2613 2SM BR BKN007
     FM261500 00000KT P6SM SCT025
     FM261800 VRB03KT P6SM SKC=

Latest METAR

211
SAUS70 KWBC 260700 RRF
MTRCSV
METAR KCSV 260653Z AUTO 00000KT 3SM BR CLR 13/12 A3005 RMK AO2 SLP162
T01280117


USA.gov is the U.S. government's official web portal to all federal, state and local government web resources and services.